Time;durP1;ratioP1;P1;durP2;ratioP2;P2;SDS_P1;SDS_P2;PMS_P1;PMS_P2;Temp;Humidity;BMP_temperature;BMP_pressure;BME280_temperature;BME280_humidity;BME280_pressure;Samples;Min_cycle;Max_cycle;Signal;HPM_P1;HPM_P2
2022/04/01 00:00:39;;;;;;;28.08;21.67;;;2.90;99.90;;;;;;5017861;28;20057;-63
2022/04/01 00:03:06;;;;;;;29.25;23.45;;;2.80;99.90;;;;;;5015527;28;20033;-63
2022/04/01 00:05:33;;;;;;;27.42;21.70;;;2.90;99.90;;;;;;5019165;28;20535;-63
2022/04/01 00:07:59;;;;;;;25.88;18.83;;;3.90;99.90;;;;;;5016513;28;20205;-63
2022/04/01 00:10:26;;;;;;;26.55;19.63;;;2.80;99.90;;;;;;5016265;28;20598;-62
2022/04/01 00:12:52;;;;;;;26.63;20.23;;;2.90;99.90;;;;;;4997658;28;20026;-63
2022/04/01 00:15:17;;;;;;;28.90;21.73;;;2.90;99.90;;;;;;5024618;28;20033;-63
2022/04/01 00:17:43;;;;;;;26.08;20.63;;;2.90;99.90;;;;;;5020637;28;20116;-63
2022/04/01 00:20:11;;;;;;;24.65;17.75;;;2.90;99.90;;;;;;5016179;28;20116;-63
2022/04/01 00:22:37;;;;;;;22.52;17.88;;;2.80;99.90;;;;;;5018679;28;20021;-63
2022/04/01 00:25:03;;;;;;;25.40;19.67;;;2.70;99.90;;;;;;5019636;28;20104;-63
2022/04/01 00:27:29;;;;;;;26.70;20.05;;;2.90;99.90;;;;;;5026138;28;20021;-63
2022/04/01 00:29:54;;;;;;;26.75;20.58;;;3.00;99.90;;;;;;5023733;28;20033;-62
2022/04/01 00:32:21;;;;;;;24.42;19.17;;;2.50;99.90;;;;;;5025881;28;20033;-63
2022/04/01 00:34:47;;;;;;;22.25;16.90;;;2.80;99.90;;;;;;5023270;28;20029;-62
2022/04/01 00:37:14;;;;;;;23.38;19.48;;;2.70;99.90;;;;;;5023311;28;20025;-62
2022/04/01 00:39:40;;;;;;;25.90;19.83;;;3.00;99.90;;;;;;5019217;28;20053;-62
2022/04/01 00:42:06;;;;;;;22.55;19.80;;;3.10;99.90;;;;;;5020089;28;20069;-62
2022/04/01 00:44:33;;;;;;;21.65;19.05;;;3.00;99.90;;;;;;5021784;28;20057;-62
2022/04/01 00:47:06;;;;;;;20.48;17.80;;;3.00;99.90;;;;;;5024257;28;20018;-62
2022/04/01 00:49:33;;;;;;;16.58;14.07;;;3.00;99.90;;;;;;5015724;28;20109;-62
2022/04/01 00:52:01;;;;;;;24.65;19.42;;;2.70;99.90;;;;;;5014611;28;20160;-62
2022/04/01 00:54:27;;;;;;;24.10;18.25;;;2.80;99.90;;;;;;5018807;28;20093;-63
2022/04/01 00:56:54;;;;;;;25.48;19.23;;;2.90;99.90;;;;;;5019830;28;20123;-62
2022/04/01 00:59:20;;;;;;;24.95;18.85;;;3.00;99.90;;;;;;5021452;28;20094;-62
2022/04/01 01:01:49;;;;;;;25.17;19.65;;;3.00;99.90;;;;;;5018938;28;20243;-62
2022/04/01 01:04:17;;;;;;;24.25;20.10;;;2.80;99.90;;;;;;5015620;28;20107;-62
2022/04/01 01:06:44;;;;;;;22.75;17.23;;;2.80;99.90;;;;;;5017281;28;20033;-63
2022/04/01 01:09:11;;;;;;;24.88;19.30;;;2.60;99.90;;;;;;5019847;28;20115;-62
2022/04/01 01:11:37;;;;;;;25.73;18.77;;;2.80;99.90;;;;;;5017432;28;20164;-62
2022/04/01 01:14:04;;;;;;;19.10;15.43;;;2.80;99.90;;;;;;5024430;28;20029;-62
2022/04/01 01:16:31;;;;;;;21.10;17.20;;;2.50;99.90;;;;;;5015695;28;20036;-62
2022/04/01 01:19:07;;;;;;;23.67;17.15;;;2.70;99.90;;;;;;5012929;28;20047;-62
2022/04/01 01:21:34;;;;;;;21.92;16.75;;;3.20;99.90;;;;;;5015062;28;20552;-62
2022/04/01 01:24:05;;;;;;;20.27;16.88;;;2.40;99.90;;;;;;5003150;28;20034;-62
2022/04/01 01:26:32;;;;;;;22.20;18.20;;;2.60;99.90;;;;;;5021021;28;20114;-62
2022/04/01 01:28:59;;;;;;;20.45;15.68;;;2.60;99.90;;;;;;5020369;28;20032;-62
2022/04/01 01:31:25;;;;;;;22.02;17.98;;;2.60;99.90;;;;;;5020139;28;20033;-62
2022/04/01 01:33:53;;;;;;;22.10;18.15;;;2.70;99.90;;;;;;5011409;28;20437;-62
2022/04/01 01:36:19;;;;;;;22.15;18.85;;;2.60;99.90;;;;;;5013986;28;20025;-62
2022/04/01 01:38:45;;;;;;;20.17;15.35;;;2.80;99.90;;;;;;5020502;28;20033;-63
2022/04/01 01:41:11;;;;;;;18.95;15.15;;;2.60;99.90;;;;;;5013050;28;20085;-62
2022/04/01 01:43:37;;;;;;;21.60;17.13;;;2.80;99.90;;;;;;5015212;28;20032;-62
2022/04/01 01:46:03;;;;;;;18.17;14.43;;;2.70;99.90;;;;;;5018516;28;20033;-61
2022/04/01 01:48:28;;;;;;;15.60;12.18;;;2.60;99.90;;;;;;5014449;28;20029;-62
2022/04/01 01:56:22;;;;;;;16.92;13.85;;;2.60;99.90;;;;;;5016466;28;20194;-62
2022/04/01 01:58:48;;;;;;;15.02;12.77;;;2.60;99.90;;;;;;5021579;28;20025;-62
2022/04/01 02:01:13;;;;;;;15.95;13.10;;;2.40;99.90;;;;;;5015701;28;20026;-61
2022/04/01 02:03:39;;;;;;;16.50;11.00;;;2.50;99.90;;;;;;5015791;28;20029;-61
2022/04/01 02:06:05;;;;;;;15.70;12.82;;;2.40;99.90;;;;;;5012765;28;20029;-61
2022/04/01 02:08:31;;;;;;;13.98;11.93;;;2.40;99.90;;;;;;5014867;28;20378;-63
2022/04/01 02:10:57;;;;;;;14.90;10.93;;;2.60;99.90;;;;;;5013149;28;20034;-62
2022/04/01 02:13:23;;;;;;;15.93;12.20;;;2.40;99.90;;;;;;5018651;28;20064;-63
2022/04/01 02:15:50;;;;;;;14.20;11.43;;;;;;;;;;5017503;28;20026;-63
2022/04/01 02:18:16;;;;;;;14.80;11.57;;;;;;;;;;5024003;28;20027;-63
2022/04/01 02:20:42;;;;;;;10.68;8.32;;;;;;;;;;5025452;28;20390;-63
2022/04/01 02:23:09;;;;;;;12.40;9.02;;;;;;;;;;5018097;28;20532;-63
2022/04/01 02:25:36;;;;;;;11.68;8.80;;;;;;;;;;5013492;28;20029;-63
2022/04/01 02:28:02;;;;;;;12.27;8.35;;;;;;;;;;5019796;28;20076;-63
2022/04/01 02:30:28;;;;;;;8.60;6.88;;;;;;;;;;5015115;28;20032;-63
2022/04/01 02:32:54;;;;;;;12.63;7.40;;;;;;;;;;5014629;28;20025;-63
2022/04/01 02:35:20;;;;;;;8.57;7.20;;;;;;;;;;4996841;28;20561;-63
2022/04/01 02:37:47;;;;;;;8.60;6.40;;;;;;;;;;5023224;28;20484;-62
2022/04/01 02:40:13;;;;;;;8.73;6.55;;;;;;;;;;5016402;28;20018;-62
2022/04/01 02:42:40;;;;;;;10.75;6.80;;;;;;;;;;5016685;28;20541;-62
2022/04/01 02:45:07;;;;;;;8.25;5.80;;;;;;;;;;5021586;28;20021;-63
2022/04/01 02:47:33;;;;;;;9.15;6.75;;;;;;;;;;5026370;28;20017;-62
2022/04/01 02:50:00;;;;;;;8.65;7.53;;;;;;;;;;5018798;28;20129;-62
2022/04/01 02:52:27;;;;;;;8.93;7.40;;;;;;;;;;5015324;28;20482;-62
2022/04/01 02:54:53;;;;;;;8.18;6.38;;;;;;;;;;4996748;28;20052;-63
2022/04/01 02:57:20;;;;;;;9.52;7.10;;;;;;;;;;5009884;28;20029;-62
2022/04/01 02:59:47;;;;;;;9.95;5.97;;;;;;;;;;5015516;28;20499;-62
2022/04/01 03:02:14;;;;;;;9.50;7.70;;;;;;;;;;5013876;28;20091;-63
2022/04/01 03:04:40;;;;;;;9.13;7.22;;;;;;;;;;5012491;28;20025;-62
2022/04/01 03:07:06;;;;;;;8.48;6.75;;;;;;;;;;4996530;28;20016;-62
2022/04/01 03:09:33;;;;;;;9.23;6.43;;;;;;;;;;5020034;28;20021;-62
2022/04/01 03:12:00;;;;;;;6.57;5.53;;;;;;;;;;5009342;28;20409;-62
2022/04/01 03:14:26;;;;;;;7.78;6.25;;;;;;;;;;5013194;28;20021;-62
2022/04/01 03:16:52;;;;;;;6.95;6.15;;;;;;;;;;5020619;28;20033;-62
2022/04/01 03:19:19;;;;;;;5.72;5.05;;;;;;;;;;5022159;28;20092;-62
2022/04/01 03:21:46;;;;;;;8.00;5.75;;;;;;;;;;5015093;28;20495;-62
2022/04/01 03:24:12;;;;;;;6.68;5.97;;;;;;;;;;5012330;28;20460;-62
2022/04/01 03:26:41;;;;;;;6.03;5.05;;;;;;;;;;5019676;28;20091;-62
2022/04/01 03:29:07;;;;;;;5.85;5.07;;;;;;;;;;5016517;28;21740;-61
2022/04/01 03:31:34;;;;;;;7.10;4.85;;;;;;;;;;5010107;28;20061;-62
2022/04/01 03:34:00;;;;;;;6.55;5.15;;;;;;;;;;5022091;28;20032;-62
2022/04/01 03:36:26;;;;;;;6.05;4.88;;;;;;;;;;5006183;28;20080;-62
2022/04/01 03:38:52;;;;;;;5.57;5.00;;;;;;;;;;5017639;28;20025;-62
2022/04/01 03:41:19;;;;;;;7.25;4.95;;;;;;;;;;4996227;28;20516;-62
2022/04/01 03:43:45;;;;;;;6.25;4.82;;;;;;;;;;5019285;28;20028;-61
2022/04/01 03:46:17;;;;;;;5.68;4.75;;;;;;;;;;5029940;28;20025;-60
2022/04/01 03:48:45;;;;;;;6.78;5.35;;;;;;;;;;5021439;28;20495;-61
2022/04/01 03:51:24;;;;;;;6.43;4.97;;;;;;;;;;5026350;28;20033;-61
2022/04/01 03:53:58;;;;;;;7.53;5.18;;;;;;;;;;5015720;28;20054;-61
2022/04/01 03:56:29;;;;;;;7.57;5.30;;;;;;;;;;5015166;28;20051;-61
2022/04/01 03:59:07;;;;;;;6.93;4.63;;;2.30;99.90;;;;;;5024446;28;20428;-62
2022/04/01 04:01:35;;;;;;;6.40;5.68;;;2.10;99.90;;;;;;4999386;28;20037;-62
2022/04/01 04:04:03;;;;;;;7.03;5.50;;;2.00;99.90;;;;;;5018067;28;20702;-62
2022/04/01 04:06:28;;;;;;;6.45;5.20;;;2.00;99.90;;;;;;5021687;28;20589;-61
2022/04/01 04:08:56;;;;;;;6.28;4.72;;;2.10;99.90;;;;;;5002643;28;20060;-61
2022/04/01 04:11:27;;;;;;;8.02;5.78;;;2.10;99.90;;;;;;5019402;28;20025;-62
2022/04/01 04:13:53;;;;;;;7.22;5.18;;;2.00;99.90;;;;;;5027399;28;20025;-62
2022/04/01 04:16:31;;;;;;;6.50;5.47;;;2.10;99.90;;;;;;5020827;28;20037;-62
2022/04/01 04:19:07;;;;;;;5.63;4.43;;;2.00;99.90;;;;;;5022164;28;20088;-61
2022/04/01 04:22:07;;;;;;;6.05;5.45;;;1.90;99.90;;;;;;5015828;28;20486;-62
2022/04/01 04:24:42;;;;;;;5.50;4.93;;;1.90;99.90;;;;;;5019286;28;20041;-61
2022/04/01 04:27:13;;;;;;;6.30;5.35;;;1.90;99.90;;;;;;5021961;28;20037;-62
2022/04/01 04:29:50;;;;;;;6.45;5.53;;;2.00;99.90;;;;;;5021469;28;20482;-62
2022/04/01 04:32:42;;;;;;;5.88;4.82;;;2.20;99.90;;;;;;5019804;28;20029;-61
2022/04/01 04:35:09;;;;;;;6.22;5.35;;;2.00;99.90;;;;;;5000107;28;20458;-61
2022/04/01 04:37:42;;;;;;;7.30;6.10;;;1.90;99.90;;;;;;5017092;28;20021;-62
2022/04/01 04:40:10;;;;;;;8.77;6.25;;;2.00;99.90;;;;;;5012847;28;20469;-61
2022/04/01 04:42:36;;;;;;;7.15;6.00;;;2.00;99.90;;;;;;5018607;28;20418;-62
2022/04/01 04:45:04;;;;;;;11.23;5.70;;;1.90;99.90;;;;;;5017531;28;20028;-61
2022/04/01 04:47:33;;;;;;;5.72;4.38;;;;;;;;;;5011931;28;20582;-61
2022/04/01 04:50:01;;;;;;;5.68;4.20;;;1.60;99.90;;;;;;5012221;28;20389;-62
2022/04/01 04:52:32;;;;;;;5.85;5.18;;;1.90;99.90;;;;;;5017391;28;20035;-61
2022/04/01 04:54:59;;;;;;;6.13;5.15;;;2.00;99.90;;;;;;5013755;28;20406;-61
2022/04/01 04:57:27;;;;;;;7.85;5.45;;;1.80;99.90;;;;;;5017732;28;20049;-62
2022/04/01 04:59:56;;;;;;;7.82;5.95;;;1.90;99.90;;;;;;5019800;28;20022;-62
2022/04/01 05:02:48;;;;;;;7.63;5.75;;;2.10;99.90;;;;;;5024937;28;20087;-63
2022/04/01 05:05:29;;;;;;;6.50;5.75;;;2.00;99.90;;;;;;5015320;28;20489;-62
2022/04/01 05:08:05;;;;;;;7.88;5.90;;;;;;;;;;5013449;28;20037;-62
2022/04/01 05:10:52;;;;;;;7.90;5.90;;;2.00;99.90;;;;;;5022755;28;20437;-62
2022/04/01 05:13:28;;;;;;;8.23;6.72;;;2.10;99.90;;;;;;5018467;28;20026;-62
2022/04/01 05:15:59;;;;;;;8.13;6.22;;;1.90;99.90;;;;;;5021326;28;20022;-61
2022/04/01 05:18:37;;;;;;;6.72;5.82;;;2.10;99.90;;;;;;5015665;28;20346;-62
2022/04/01 05:21:04;;;;;;;7.18;6.32;;;2.10;99.90;;;;;;5019678;28;20109;-61
2022/04/01 05:23:45;;;;;;;6.55;4.95;;;;;;;;;;5021041;28;20022;-62
2022/04/01 05:26:13;;;;;;;7.45;5.72;;;1.90;99.90;;;;;;5019618;28;20088;-61
2022/04/01 05:28:45;;;;;;;7.63;6.07;;;2.10;99.90;;;;;;5022698;28;20025;-62
2022/04/01 05:31:26;;;;;;;10.20;7.88;;;2.20;99.90;;;;;;5021987;28;20499;-62
2022/04/01 05:34:03;;;;;;;8.68;7.38;;;2.20;99.90;;;;;;5016972;28;20493;-62
2022/04/01 05:36:30;;;;;;;8.63;7.60;;;2.10;99.90;;;;;;5015621;28;20018;-62
2022/04/01 05:38:57;;;;;;;8.02;7.22;;;2.00;99.90;;;;;;5015013;28;20022;-62
2022/04/01 05:41:23;;;;;;;10.02;7.88;;;1.80;99.90;;;;;;5020683;28;20053;-62
2022/04/01 05:43:50;;;;;;;10.15;8.48;;;1.90;99.90;;;;;;5016417;28;20092;-62
2022/04/01 05:46:17;;;;;;;9.57;8.25;;;2.00;99.90;;;;;;5016143;28;20359;-63
2022/04/01 05:48:43;;;;;;;10.48;8.40;;;;;;;;;;5014762;28;20022;-62
2022/04/01 05:51:15;;;;;;;10.00;7.25;;;2.00;99.90;;;;;;5022011;28;20137;-62
2022/04/01 05:53:45;;;;;;;10.25;7.97;;;2.10;99.90;;;;;;5021578;28;20079;-62
2022/04/01 05:56:12;;;;;;;9.15;7.47;;;2.10;99.90;;;;;;5015460;28;20044;-61
2022/04/01 05:58:38;;;;;;;9.85;8.30;;;1.90;99.90;;;;;;5020877;28;20029;-62
2022/04/01 06:01:30;;;;;;;12.98;9.10;;;2.00;99.90;;;;;;5019518;28;20025;-62
2022/04/01 06:04:07;;;;;;;11.93;8.95;;;2.10;99.90;;;;;;5010288;28;20021;-62
2022/04/01 06:06:43;;;;;;;9.75;8.45;;;2.10;99.90;;;;;;5017775;28;20037;-62
2022/04/01 06:09:32;;;;;;;9.55;8.23;;;1.90;99.90;;;;;;5017514;28;20022;-62
2022/04/01 06:12:01;;;;;;;11.48;8.60;;;2.10;99.90;;;;;;5011035;28;20026;-61
2022/04/01 06:14:43;;;;;;;10.43;6.85;;;;;;;;;;5022901;28;20033;-62
2022/04/01 06:17:21;;;;;;;10.57;7.38;;;1.90;99.90;;;;;;5017313;28;20044;-60
2022/04/01 06:19:50;;;;;;;10.88;7.78;;;1.90;99.90;;;;;;5021290;28;20075;-62
2022/04/01 06:22:20;;;;;;;9.65;6.70;;;1.90;99.90;;;;;;5018967;28;20548;-62
2022/04/01 06:25:16;;;;;;;7.57;6.38;;;1.90;99.90;;;;;;5014079;28;20024;-60
2022/04/01 06:27:49;;;;;;;10.65;8.10;;;2.00;99.90;;;;;;5019353;28;20028;-62
2022/04/01 06:30:21;;;;;;;8.48;6.18;;;2.00;99.90;;;;;;5021036;28;20048;-61
2022/04/01 06:32:56;;;;;;;10.52;6.22;;;2.00;99.90;;;;;;5015177;28;20026;-61
2022/04/01 06:35:31;;;;;;;10.35;6.25;;;1.90;99.90;;;;;;5013855;28;20362;-61
2022/04/01 06:38:07;;;;;;;7.85;6.72;;;1.90;99.90;;;;;;5019097;28;20037;-62
2022/04/01 06:40:55;;;;;;;8.20;5.68;;;2.00;99.90;;;;;;5018696;28;20398;-62
2022/04/01 06:43:21;;;;;;;10.45;6.50;;;1.70;99.90;;;;;;5012845;28;20025;-62
2022/04/01 06:45:47;;;;;;;9.00;6.63;;;1.90;99.90;;;;;;5017006;28;20561;-62
2022/04/01 06:48:12;;;;;;;6.93;5.60;;;2.00;99.90;;;;;;5021178;28;20030;-62
2022/04/01 06:50:38;;;;;;;6.70;4.93;;;2.10;99.90;;;;;;5018525;28;20509;-62
2022/04/01 06:53:05;;;;;;;7.82;5.93;;;1.90;99.90;;;;;;5015888;28;20101;-62
2022/04/01 06:55:30;;;;;;;7.63;5.88;;;2.00;99.90;;;;;;5019632;28;20037;-62
2022/04/01 06:57:56;;;;;;;6.65;4.95;;;2.00;99.90;;;;;;5014270;28;20498;-62
2022/04/01 07:00:21;;;;;;;7.00;4.90;;;1.90;99.90;;;;;;5017858;28;20029;-61
2022/04/01 07:02:49;;;;;;;6.95;4.57;;;1.90;99.90;;;;;;5017656;28;20037;-61
2022/04/01 07:05:14;;;;;;;8.38;4.97;;;1.70;99.90;;;;;;5017471;28;20393;-61
2022/04/01 07:07:44;;;;;;;6.05;4.90;;;1.80;99.90;;;;;;5021779;28;20127;-62
2022/04/01 07:10:13;;;;;;;5.72;4.93;;;1.80;99.90;;;;;;5016520;28;20440;-62
2022/04/01 07:12:39;;;;;;;8.10;5.57;;;1.80;99.90;;;;;;5022698;28;20393;-62
2022/04/01 07:15:07;;;;;;;7.10;5.60;;;1.90;99.90;;;;;;4999354;28;20036;-61
2022/04/01 07:17:33;;;;;;;7.03;5.20;;;1.90;99.90;;;;;;5019310;28;20048;-62
2022/04/01 07:19:59;;;;;;;6.70;4.80;;;2.10;99.90;;;;;;5016239;28;20021;-61
2022/04/01 07:22:25;;;;;;;7.03;5.13;;;2.10;99.90;;;;;;5014370;28;20408;-61
2022/04/01 07:24:50;;;;;;;4.57;3.45;;;1.90;99.90;;;;;;5012816;28;20021;-61
2022/04/01 07:27:17;;;;;;;7.38;3.97;;;1.80;99.90;;;;;;5020947;28;20405;-62
2022/04/01 07:29:42;;;;;;;6.82;5.07;;;1.80;99.90;;;;;;5017317;28;20469;-61
2022/04/01 07:34:52;;;;;;;6.68;4.57;;;1.90;99.90;;;;;;5020033;28;20024;-62
2022/04/01 07:37:23;;;;;;;13.90;5.15;;;1.90;99.90;;;;;;5017177;28;20021;-62
2022/04/01 07:39:51;;;;;;;9.13;7.10;;;1.80;99.90;;;;;;5017010;28;20163;-61
2022/04/01 07:42:18;;;;;;;6.40;5.22;;;1.90;99.90;;;;;;5012678;28;20405;-62
2022/04/01 07:44:44;;;;;;;7.03;5.07;;;1.90;99.90;;;;;;5019811;28;20386;-62
2022/04/01 07:47:09;;;;;;;13.30;5.20;;;2.00;99.90;;;;;;5014305;28;20025;-60
2022/04/01 07:49:40;;;;;;;7.60;4.78;;;2.00;99.90;;;;;;4990379;28;20029;-61
2022/04/01 07:52:08;;;;;;;7.88;4.95;;;2.00;99.90;;;;;;5019914;28;20037;-61
2022/04/01 07:54:34;;;;;;;6.63;5.22;;;2.00;99.90;;;;;;5011576;28;20029;-62
2022/04/01 07:57:01;;;;;;;9.90;5.70;;;2.00;99.90;;;;;;5017676;28;20049;-62
2022/04/01 07:59:26;;;;;;;8.98;5.18;;;2.00;99.90;;;;;;5018175;28;20079;-61
2022/04/01 08:01:52;;;;;;;9.73;5.38;;;2.00;99.90;;;;;;4994385;28;20030;-61
2022/04/01 08:04:18;;;;;;;6.82;5.03;;;2.10;99.90;;;;;;5014756;28;20438;-62
2022/04/01 08:06:44;;;;;;;7.50;5.05;;;2.10;99.90;;;;;;5016742;28;20247;-61
2022/04/01 08:09:09;;;;;;;7.13;4.95;;;2.10;99.90;;;;;;5020907;28;20049;-61
2022/04/01 08:11:35;;;;;;;7.53;5.20;;;2.10;99.90;;;;;;5016078;28;20038;-61
2022/04/01 08:14:00;;;;;;;6.32;4.30;;;2.20;99.90;;;;;;5012501;28;20067;-61
2022/04/01 08:16:26;;;;;;;7.70;4.80;;;2.00;99.90;;;;;;5017689;28;20030;-61
2022/04/01 08:18:52;;;;;;;6.35;4.43;;;2.00;99.90;;;;;;5016017;28;20112;-62
2022/04/01 08:21:17;;;;;;;8.52;4.20;;;2.00;99.90;;;;;;5012442;28;20048;-62
2022/04/01 08:23:43;;;;;;;6.78;3.90;;;1.90;99.90;;;;;;5018713;28;20057;-62
2022/04/01 08:26:10;;;;;;;6.68;4.90;;;2.00;99.90;;;;;;5018219;28;20060;-61
2022/04/01 08:28:37;;;;;;;5.80;4.60;;;2.00;99.90;;;;;;5022086;28;20013;-61
2022/04/01 08:31:03;;;;;;;11.48;6.70;;;2.00;99.90;;;;;;5016252;28;20026;-61
2022/04/01 08:33:29;;;;;;;6.28;4.45;;;2.10;99.90;;;;;;5021938;28;20037;-62
2022/04/01 08:35:55;;;;;;;6.55;5.57;;;2.20;99.90;;;;;;5012548;28;20033;-61
2022/04/01 08:38:20;;;;;;;6.00;4.78;;;2.10;99.90;;;;;;5018869;28;20025;-61
2022/04/01 08:40:46;;;;;;;6.60;4.45;;;2.30;99.90;;;;;;5023314;28;20416;-62
2022/04/01 08:43:12;;;;;;;8.63;4.78;;;2.10;99.90;;;;;;5015883;28;20060;-60
2022/04/01 08:45:38;;;;;;;7.22;4.10;;;2.10;99.90;;;;;;5018334;28;20075;-62
2022/04/01 08:48:06;;;;;;;7.07;3.92;;;2.00;99.90;;;;;;5021230;28;20512;-61
2022/04/01 08:50:32;;;;;;;9.65;4.78;;;2.00;99.90;;;;;;5011619;28;20401;-59
2022/04/01 08:52:59;;;;;;;5.13;3.70;;;2.00;99.90;;;;;;5015768;28;20037;-61
2022/04/01 08:55:24;;;;;;;7.82;4.05;;;2.00;99.90;;;;;;5019283;28;20061;-61
2022/04/01 08:57:51;;;;;;;5.07;3.38;;;2.00;99.90;;;;;;5021246;28;20171;-61
2022/04/01 09:00:16;;;;;;;6.82;3.83;;;2.10;99.90;;;;;;5023813;28;20238;-61
2022/04/01 09:02:43;;;;;;;5.07;3.50;;;2.00;99.90;;;;;;5022118;28;20534;-60
2022/04/01 09:05:09;;;;;;;17.92;11.55;;;2.10;99.90;;;;;;5016708;28;20087;-61
2022/04/01 09:07:35;;;;;;;5.97;4.60;;;2.10;99.90;;;;;;5020327;28;20063;-61
2022/04/01 09:10:06;;;;;;;5.72;4.05;;;2.10;99.90;;;;;;5020426;28;20432;-61
2022/04/01 09:12:33;;;;;;;6.10;4.40;;;2.10;99.90;;;;;;5019037;28;20022;-61
2022/04/01 09:14:59;;;;;;;3.80;2.60;;;2.10;99.90;;;;;;5021681;28;20374;-62
2022/04/01 09:17:54;;;;;;;4.82;3.75;;;2.10;99.90;;;;;;5024379;28;20033;-61
2022/04/01 09:20:20;;;;;;;6.43;4.30;;;2.00;99.90;;;;;;4981873;28;20046;-61
2022/04/01 09:22:46;;;;;;;6.95;4.93;;;2.00;99.90;;;;;;5018150;28;20517;-62
2022/04/01 09:25:14;;;;;;;5.28;4.03;;;2.10;99.90;;;;;;5015407;28;20088;-61
2022/04/01 09:27:43;;;;;;;8.23;5.15;;;2.10;99.90;;;;;;4996574;28;20076;-61
2022/04/01 09:30:19;;;;;;;7.38;5.53;;;2.10;99.90;;;;;;5016963;28;20022;-61
2022/04/01 09:32:51;;;;;;;4.72;3.30;;;2.10;99.90;;;;;;5005959;28;20022;-61
2022/04/01 09:35:20;;;;;;;5.90;4.07;;;2.10;99.90;;;;;;4994033;28;20030;-61
2022/04/01 09:37:50;;;;;;;5.32;4.22;;;2.20;99.90;;;;;;5019669;28;20028;-61
2022/04/01 09:40:21;;;;;;;5.35;3.53;;;2.20;99.90;;;;;;5014898;28;20022;-62
2022/04/01 09:42:48;;;;;;;6.70;4.40;;;2.00;99.90;;;;;;5015814;28;20390;-61
2022/04/01 09:45:19;;;;;;;5.05;3.30;;;2.10;99.90;;;;;;5015038;28;20061;-61
2022/04/01 09:47:45;;;;;;;5.68;3.47;;;1.90;99.90;;;;;;5020494;28;20444;-61
2022/04/01 09:50:17;;;;;;;6.38;3.88;;;2.00;99.90;;;;;;5016745;28;20018;-62
2022/04/01 09:52:43;;;;;;;4.68;2.92;;;2.10;99.90;;;;;;5016946;28;20125;-61
2022/04/01 09:55:09;;;;;;;7.55;3.72;;;2.10;99.90;;;;;;5012842;28;20525;-61
2022/04/01 09:57:35;;;;;;;8.10;4.18;;;2.00;99.90;;;;;;5016202;28;20521;-62
2022/04/01 10:00:02;;;;;;;6.50;4.13;;;2.10;99.90;;;;;;5016263;28;20041;-63
2022/04/01 10:02:29;;;;;;;5.43;4.30;;;2.10;99.90;;;;;;5016676;28;20033;-62
2022/04/01 10:04:55;;;;;;;7.20;4.43;;;2.10;99.90;;;;;;5017409;28;20021;-62
2022/04/01 10:07:22;;;;;;;8.18;5.07;;;2.30;99.90;;;;;;5017533;28;20033;-62
2022/04/01 10:09:49;;;;;;;7.32;4.47;;;2.30;99.90;;;;;;5016550;28;20438;-61
2022/04/01 10:12:18;;;;;;;5.63;3.88;;;2.30;99.90;;;;;;5014017;28;20095;-61
2022/04/01 10:14:45;;;;;;;3.80;3.05;;;2.30;99.90;;;;;;5015880;28;20026;-61
2022/04/01 10:17:14;;;;;;;9.73;4.35;;;2.30;99.90;;;;;;5013560;28;20032;-61
2022/04/01 10:19:46;;;;;;;7.90;4.80;;;2.40;99.90;;;;;;5018271;28;20041;-61
2022/04/01 10:22:16;;;;;;;10.02;4.80;;;2.50;99.90;;;;;;5016742;28;20109;-62
2022/04/01 10:25:06;;;;;;;8.93;4.00;;;2.30;99.90;;;;;;5021267;28;20148;-61
2022/04/01 10:27:40;;;;;;;7.30;4.32;;;2.20;99.90;;;;;;5004085;28;20185;-61
2022/04/01 10:30:08;;;;;;;3.88;2.85;;;2.30;99.90;;;;;;5023156;28;20478;-61
2022/04/01 10:32:40;;;;;;;5.53;3.92;;;2.30;99.90;;;;;;5016644;28;20056;-61
2022/04/01 10:35:08;;;;;;;7.15;3.95;;;2.30;99.90;;;;;;5021094;28;20026;-61
2022/04/01 10:37:35;;;;;;;5.93;4.43;;;2.30;99.90;;;;;;5019027;28;20018;-61
2022/04/01 10:40:06;;;;;;;9.85;4.65;;;2.40;99.90;;;;;;5013496;28;20037;-61
2022/04/01 10:42:37;;;;;;;6.25;3.83;;;2.40;99.90;;;;;;5020965;28;20055;-63
2022/04/01 10:45:22;;;;;;;9.18;4.50;;;2.40;99.90;;;;;;5013501;28;20465;-59
2022/04/01 10:53:52;;;;;;;8.25;4.03;;;2.70;99.90;;;;;;5010891;28;20044;-61
2022/04/01 10:56:26;;;;;;;6.32;4.50;;;2.60;99.90;;;;;;5018822;28;20515;-62
2022/04/01 10:59:04;;;;;;;7.55;4.63;;;2.60;99.90;;;;;;5014862;28;20104;-62
2022/04/01 11:01:30;;;;;;;11.02;5.80;;;2.50;99.90;;;;;;5016229;28;20120;-61
2022/04/01 11:04:23;;;;;;;7.68;5.45;;;2.50;99.90;;;;;;5022184;28;20036;-62
2022/04/01 11:06:55;;;;;;;8.25;5.03;;;2.50;99.90;;;;;;5015429;28;20044;-62
2022/04/01 11:09:46;;;;;;;6.32;4.43;;;2.40;99.90;;;;;;5011042;28;20017;-62
2022/04/01 11:12:15;;;;;;;6.68;4.80;;;2.40;99.90;;;;;;5014331;28;20160;-60
2022/04/01 11:14:59;;;;;;;6.43;4.03;;;2.50;99.90;;;;;;4997994;28;20403;-61
2022/04/01 11:17:49;;;;;;;7.55;5.00;;;2.50;99.90;;;;;;5018906;28;20022;-61
2022/04/01 11:20:27;;;;;;;7.20;4.82;;;2.60;99.90;;;;;;5011639;28;20466;-61
2022/04/01 11:22:53;;;;;;;6.55;4.60;;;2.50;99.90;;;;;;5012436;28;20600;-61
2022/04/01 11:25:24;;;;;;;12.30;5.55;;;2.50;99.90;;;;;;5015133;28;20028;-61
2022/04/01 11:28:06;;;;;;;10.50;5.20;;;2.60;99.90;;;;;;5018023;28;20083;-62
2022/04/01 11:30:33;;;;;;;9.02;5.03;;;2.60;99.90;;;;;;5013432;28;20362;-62
2022/04/01 11:33:01;;;;;;;5.18;3.47;;;2.60;99.90;;;;;;5014884;28;20021;-61
2022/04/01 11:35:29;;;;;;;7.22;4.55;;;2.50;99.90;;;;;;5014544;28;20032;-62
2022/04/01 11:37:55;;;;;;;7.00;4.32;;;2.40;99.90;;;;;;5016438;28;20026;-62
2022/04/01 11:40:26;;;;;;;7.38;4.40;;;2.30;99.90;;;;;;5016606;28;20038;-61
2022/04/01 11:42:57;;;;;;;8.43;3.92;;;2.40;99.90;;;;;;5025774;28;20022;-61
2022/04/01 11:45:24;;;;;;;8.20;4.50;;;2.40;99.90;;;;;;5014998;28;20106;-61
2022/04/01 11:47:50;;;;;;;6.60;3.45;;;2.40;99.90;;;;;;5014891;28;20505;-61
2022/04/01 11:50:20;;;;;;;5.78;3.63;;;2.40;99.90;;;;;;5018684;28;20018;-61
2022/04/01 11:52:48;;;;;;;5.45;3.83;;;2.30;99.90;;;;;;5016499;28;20014;-61
2022/04/01 11:55:16;;;;;;;6.07;3.30;;;2.40;99.90;;;;;;4994636;28;20036;-62
2022/04/01 11:57:43;;;;;;;7.43;4.45;;;2.30;99.90;;;;;;5010157;28;20026;-62
2022/04/01 12:00:20;;;;;;;6.53;4.57;;;2.50;99.90;;;;;;5020045;28;20030;-61
2022/04/01 12:02:47;;;;;;;10.88;4.90;;;2.40;99.90;;;;;;5017799;28;20043;-61
2022/04/01 12:05:14;;;;;;;12.93;5.45;;;2.40;99.90;;;;;;5017424;28;20051;-61
2022/04/01 12:10:29;;;;;;;8.57;5.15;;;2.50;99.90;;;;;;5019375;28;20139;-62
2022/04/01 12:13:03;;;;;;;7.07;5.18;;;2.60;99.90;;;;;;5018514;28;20500;-61
2022/04/01 12:15:35;;;;;;;7.07;3.78;;;2.60;99.90;;;;;;5018664;28;20029;-61
2022/04/01 12:18:02;;;;;;;8.02;5.28;;;2.50;99.90;;;;;;5021208;28;20379;-60
2022/04/01 12:20:28;;;;;;;8.75;5.82;;;2.50;99.90;;;;;;5023993;28;20072;-61
2022/04/01 12:23:01;;;;;;;8.93;5.70;;;2.50;99.90;;;;;;5019684;28;20033;-60
2022/04/01 12:25:29;;;;;;;10.90;5.30;;;2.60;99.90;;;;;;5016300;28;20026;-60
2022/04/01 12:27:57;;;;;;;7.43;4.63;;;2.50;99.90;;;;;;5017357;28;20044;-61
2022/04/01 12:30:54;;;;;;;8.50;5.13;;;2.40;99.90;;;;;;5025123;28;20036;-61
2022/04/01 12:33:27;;;;;;;7.97;5.70;;;2.50;99.90;;;;;;4997648;28;20030;-61
2022/04/01 12:36:05;;;;;;;7.80;4.70;;;2.60;99.90;;;;;;5021766;28;20060;-61
2022/04/01 12:38:36;;;;;;;10.95;4.72;;;2.50;99.90;;;;;;5017628;28;20033;-60
2022/04/01 12:41:22;;;;;;;6.78;4.50;;;2.50;99.90;;;;;;5015912;28;20037;-61
2022/04/01 12:43:49;;;;;;;8.85;4.85;;;2.50;99.90;;;;;;5013095;28;20371;-62
2022/04/01 12:46:23;;;;;;;6.47;4.32;;;2.60;99.90;;;;;;5019315;28;20106;-61
2022/04/01 12:48:51;;;;;;;7.05;4.05;;;2.50;99.90;;;;;;5018655;28;20424;-61
2022/04/01 12:51:26;;;;;;;8.70;5.18;;;2.60;99.90;;;;;;5014744;28;20022;-61
2022/04/01 12:53:56;;;;;;;6.45;4.82;;;2.60;99.90;;;;;;5019601;28;20489;-61
2022/04/01 12:56:31;;;;;;;7.82;5.47;;;2.70;99.90;;;;;;4997525;28;20060;-62
2022/04/01 12:59:02;;;;;;;8.90;5.78;;;2.80;99.90;;;;;;5016540;28;20083;-62
2022/04/01 13:01:30;;;;;;;9.38;7.00;;;2.70;99.90;;;;;;5015065;28;20136;-61
2022/04/01 13:03:57;;;;;;;15.43;9.20;;;2.60;99.90;;;;;;5022003;28;20026;-62
2022/04/01 13:06:25;;;;;;;11.48;6.28;;;2.80;99.90;;;;;;5022138;28;20037;-63
2022/04/01 13:09:07;;;;;;;15.80;7.38;;;2.70;99.90;;;;;;5020052;28;20068;-62
2022/04/01 13:11:37;;;;;;;10.73;7.10;;;2.50;99.90;;;;;;5015441;28;20025;-61
2022/04/01 13:14:05;;;;;;;14.43;8.63;;;2.50;99.90;;;;;;5020760;28;20029;-62
2022/04/01 13:16:40;;;;;;;9.82;7.43;;;2.80;99.90;;;;;;5017541;28;20026;-60
2022/04/01 13:19:19;;;;;;;7.65;4.60;;;2.70;99.90;;;;;;5020364;28;20029;-62
2022/04/01 13:21:44;;;;;;;9.23;6.68;;;2.50;99.90;;;;;;5016498;28;20044;-62
2022/04/01 13:24:10;;;;;;;11.85;7.10;;;2.50;99.90;;;;;;5017212;28;20022;-63
2022/04/01 13:26:36;;;;;;;10.20;6.47;;;2.60;99.90;;;;;;5003864;28;20038;-61
2022/04/01 13:29:02;;;;;;;11.98;7.28;;;2.60;99.90;;;;;;5017830;28;20080;-62
2022/04/01 13:31:28;;;;;;;12.40;6.32;;;2.50;99.90;;;;;;5005001;28;20033;-62
2022/04/01 13:33:54;;;;;;;8.88;5.93;;;2.50;99.90;;;;;;5018610;28;20037;-62